sensor_id;sensor_type;location;lat;lon;timestamp;P1;durP1;ratioP1;P2;durP2;ratioP2
3985;SDS011;2007;48.750;9.278;2022-11-12T00:01:04;4.00;;;3.20;;
3985;SDS011;2007;48.750;9.278;2022-11-12T00:03:32;3.43;;;3.13;;
3985;SDS011;2007;48.750;9.278;2022-11-12T00:06:01;5.00;;;3.60;;
3985;SDS011;2007;48.750;9.278;2022-11-12T00:08:29;4.23;;;3.43;;
3985;SDS011;2007;48.750;9.278;2022-11-12T00:10:57;4.10;;;3.60;;
3985;SDS011;2007;48.750;9.278;2022-11-12T00:13:25;3.93;;;3.57;;
3985;SDS011;2007;48.750;9.278;2022-11-12T00:15:52;5.53;;;3.67;;
3985;SDS011;2007;48.750;9.278;2022-11-12T00:18:20;3.90;;;3.60;;
3985;SDS011;2007;48.750;9.278;2022-11-12T00:20:48;4.10;;;3.37;;
3985;SDS011;2007;48.750;9.278;2022-11-12T00:23:18;3.83;;;3.43;;
3985;SDS011;2007;48.750;9.278;2022-11-12T00:25:45;4.27;;;3.40;;
3985;SDS011;2007;48.750;9.278;2022-11-12T00:28:13;3.57;;;3.27;;
3985;SDS011;2007;48.750;9.278;2022-11-12T00:30:41;5.00;;;3.90;;
3985;SDS011;2007;48.750;9.278;2022-11-12T00:33:09;5.10;;;3.57;;
3985;SDS011;2007;48.750;9.278;2022-11-12T00:35:37;4.70;;;3.53;;
3985;SDS011;2007;48.750;9.278;2022-11-12T00:38:05;3.80;;;3.50;;
3985;SDS011;2007;48.750;9.278;2022-11-12T00:40:34;4.97;;;3.83;;
3985;SDS011;2007;48.750;9.278;2022-11-12T00:43:02;4.53;;;3.80;;
3985;SDS011;2007;48.750;9.278;2022-11-12T00:45:30;5.27;;;3.90;;
3985;SDS011;2007;48.750;9.278;2022-11-12T00:47:58;3.47;;;3.07;;
3985;SDS011;2007;48.750;9.278;2022-11-12T00:50:26;4.60;;;3.67;;
3985;SDS011;2007;48.750;9.278;2022-11-12T00:52:53;4.53;;;4.13;;
3985;SDS011;2007;48.750;9.278;2022-11-12T00:55:21;4.70;;;4.30;;
3985;SDS011;2007;48.750;9.278;2022-11-12T00:57:51;4.10;;;3.27;;
3985;SDS011;2007;48.750;9.278;2022-11-12T01:00:19;4.40;;;3.47;;
3985;SDS011;2007;48.750;9.278;2022-11-12T01:02:47;4.17;;;3.60;;
3985;SDS011;2007;48.750;9.278;2022-11-12T01:05:17;4.33;;;3.93;;
3985;SDS011;2007;48.750;9.278;2022-11-12T01:07:45;4.10;;;3.70;;
3985;SDS011;2007;48.750;9.278;2022-11-12T01:10:21;4.90;;;3.73;;
3985;SDS011;2007;48.750;9.278;2022-11-12T01:12:48;5.27;;;4.10;;
3985;SDS011;2007;48.750;9.278;2022-11-12T01:15:18;3.70;;;3.40;;
3985;SDS011;2007;48.750;9.278;2022-11-12T01:17:45;5.70;;;4.20;;
3985;SDS011;2007;48.750;9.278;2022-11-12T01:20:13;3.77;;;3.47;;
3985;SDS011;2007;48.750;9.278;2022-11-12T01:22:42;4.40;;;3.70;;
3985;SDS011;2007;48.750;9.278;2022-11-12T01:25:09;4.13;;;3.73;;
3985;SDS011;2007;48.750;9.278;2022-11-12T01:27:37;4.10;;;3.70;;
3985;SDS011;2007;48.750;9.278;2022-11-12T01:30:07;3.90;;;3.50;;
3985;SDS011;2007;48.750;9.278;2022-11-12T01:32:36;5.70;;;3.77;;
3985;SDS011;2007;48.750;9.278;2022-11-12T01:35:04;4.47;;;3.80;;
3985;SDS011;2007;48.750;9.278;2022-11-12T01:37:32;3.93;;;3.50;;
3985;SDS011;2007;48.750;9.278;2022-11-12T01:40:00;4.90;;;3.77;;
3985;SDS011;2007;48.750;9.278;2022-11-12T01:42:29;4.43;;;4.03;;
3985;SDS011;2007;48.750;9.278;2022-11-12T01:44:58;4.13;;;3.73;;
3985;SDS011;2007;48.750;9.278;2022-11-12T01:47:28;4.83;;;3.83;;
3985;SDS011;2007;48.750;9.278;2022-11-12T01:49:59;4.30;;;3.73;;
3985;SDS011;2007;48.750;9.278;2022-11-12T01:52:33;4.10;;;3.70;;
3985;SDS011;2007;48.750;9.278;2022-11-12T01:55:06;4.27;;;3.60;;
3985;SDS011;2007;48.750;9.278;2022-11-12T01:57:40;4.77;;;3.63;;
3985;SDS011;2007;48.750;9.278;2022-11-12T02:00:13;4.33;;;3.70;;
3985;SDS011;2007;48.750;9.278;2022-11-12T02:02:44;4.60;;;4.10;;
3985;SDS011;2007;48.750;9.278;2022-11-12T02:05:17;4.17;;;3.77;;
3985;SDS011;2007;48.750;9.278;2022-11-12T02:07:48;4.10;;;3.70;;
3985;SDS011;2007;48.750;9.278;2022-11-12T02:10:17;5.37;;;4.20;;
3985;SDS011;2007;48.750;9.278;2022-11-12T02:12:45;4.33;;;3.57;;
3985;SDS011;2007;48.750;9.278;2022-11-12T02:15:32;4.33;;;3.93;;
3985;SDS011;2007;48.750;9.278;2022-11-12T02:18:02;5.20;;;4.10;;
3985;SDS011;2007;48.750;9.278;2022-11-12T02:20:32;4.07;;;3.73;;
3985;SDS011;2007;48.750;9.278;2022-11-12T02:23:02;4.10;;;3.70;;
3985;SDS011;2007;48.750;9.278;2022-11-12T02:25:30;4.60;;;4.10;;
3985;SDS011;2007;48.750;9.278;2022-11-12T02:27:59;4.53;;;4.13;;
3985;SDS011;2007;48.750;9.278;2022-11-12T02:30:32;5.27;;;4.33;;
3985;SDS011;2007;48.750;9.278;2022-11-12T02:33:01;4.70;;;4.00;;
3985;SDS011;2007;48.750;9.278;2022-11-12T02:35:29;4.20;;;3.80;;
3985;SDS011;2007;48.750;9.278;2022-11-12T02:37:58;4.30;;;3.77;;
3985;SDS011;2007;48.750;9.278;2022-11-12T02:40:27;4.00;;;3.70;;
3985;SDS011;2007;48.750;9.278;2022-11-12T02:42:55;4.57;;;3.90;;
3985;SDS011;2007;48.750;9.278;2022-11-12T02:45:24;4.27;;;3.87;;
3985;SDS011;2007;48.750;9.278;2022-11-12T02:47:52;4.33;;;3.93;;
3985;SDS011;2007;48.750;9.278;2022-11-12T02:50:20;5.63;;;3.93;;
3985;SDS011;2007;48.750;9.278;2022-11-12T02:52:48;3.93;;;3.50;;
3985;SDS011;2007;48.750;9.278;2022-11-12T02:55:16;5.50;;;4.57;;
3985;SDS011;2007;48.750;9.278;2022-11-12T02:57:45;4.30;;;3.90;;
3985;SDS011;2007;48.750;9.278;2022-11-12T03:00:13;4.00;;;3.50;;
3985;SDS011;2007;48.750;9.278;2022-11-12T03:02:41;4.40;;;4.00;;
3985;SDS011;2007;48.750;9.278;2022-11-12T03:05:24;3.90;;;3.50;;
3985;SDS011;2007;48.750;9.278;2022-11-12T03:07:55;3.80;;;3.40;;
3985;SDS011;2007;48.750;9.278;2022-11-12T03:10:24;4.20;;;3.73;;
3985;SDS011;2007;48.750;9.278;2022-11-12T03:12:54;3.90;;;3.50;;
3985;SDS011;2007;48.750;9.278;2022-11-12T03:15:23;4.07;;;3.60;;
3985;SDS011;2007;48.750;9.278;2022-11-12T03:17:51;3.93;;;3.50;;
3985;SDS011;2007;48.750;9.278;2022-11-12T03:20:20;3.93;;;3.57;;
3985;SDS011;2007;48.750;9.278;2022-11-12T03:22:53;4.70;;;4.20;;
3985;SDS011;2007;48.750;9.278;2022-11-12T03:25:22;4.20;;;3.80;;
3985;SDS011;2007;48.750;9.278;2022-11-12T03:27:59;4.17;;;3.77;;
3985;SDS011;2007;48.750;9.278;2022-11-12T03:30:30;3.90;;;3.60;;
3985;SDS011;2007;48.750;9.278;2022-11-12T03:32:59;4.60;;;3.70;;
3985;SDS011;2007;48.750;9.278;2022-11-12T03:35:27;3.67;;;3.37;;
3985;SDS011;2007;48.750;9.278;2022-11-12T03:37:55;3.97;;;3.23;;
3985;SDS011;2007;48.750;9.278;2022-11-12T03:40:23;4.80;;;3.90;;
3985;SDS011;2007;48.750;9.278;2022-11-12T03:42:53;4.20;;;3.80;;
3985;SDS011;2007;48.750;9.278;2022-11-12T03:45:23;4.33;;;3.93;;
3985;SDS011;2007;48.750;9.278;2022-11-12T03:47:52;3.63;;;3.33;;
3985;SDS011;2007;48.750;9.278;2022-11-12T03:50:21;4.80;;;4.30;;
3985;SDS011;2007;48.750;9.278;2022-11-12T03:52:51;3.93;;;3.50;;
3985;SDS011;2007;48.750;9.278;2022-11-12T03:55:21;4.43;;;3.93;;
3985;SDS011;2007;48.750;9.278;2022-11-12T03:57:50;3.77;;;3.47;;
3985;SDS011;2007;48.750;9.278;2022-11-12T04:00:20;3.53;;;3.23;;
3985;SDS011;2007;48.750;9.278;2022-11-12T04:02:49;3.20;;;2.90;;
3985;SDS011;2007;48.750;9.278;2022-11-12T04:05:18;4.13;;;3.80;;
3985;SDS011;2007;48.750;9.278;2022-11-12T04:08:04;3.73;;;3.00;;
3985;SDS011;2007;48.750;9.278;2022-11-12T04:11:03;4.00;;;3.60;;
3985;SDS011;2007;48.750;9.278;2022-11-12T04:13:32;4.53;;;4.13;;
3985;SDS011;2007;48.750;9.278;2022-11-12T04:16:01;3.60;;;3.30;;
3985;SDS011;2007;48.750;9.278;2022-11-12T04:18:49;4.23;;;3.93;;
3985;SDS011;2007;48.750;9.278;2022-11-12T04:21:37;4.37;;;3.73;;
3985;SDS011;2007;48.750;9.278;2022-11-12T04:24:21;3.90;;;3.50;;
3985;SDS011;2007;48.750;9.278;2022-11-12T04:27:09;4.40;;;4.00;;
3985;SDS011;2007;48.750;9.278;2022-11-12T04:29:38;3.47;;;3.17;;
3985;SDS011;2007;48.750;9.278;2022-11-12T04:32:24;3.03;;;2.70;;
3985;SDS011;2007;48.750;9.278;2022-11-12T04:34:53;4.60;;;3.43;;
3985;SDS011;2007;48.750;9.278;2022-11-12T04:37:22;3.73;;;3.40;;
3985;SDS011;2007;48.750;9.278;2022-11-12T04:39:51;3.50;;;3.20;;
3985;SDS011;2007;48.750;9.278;2022-11-12T04:42:19;4.23;;;3.83;;
3985;SDS011;2007;48.750;9.278;2022-11-12T04:45:05;4.10;;;3.70;;
3985;SDS011;2007;48.750;9.278;2022-11-12T04:47:36;4.43;;;3.70;;
3985;SDS011;2007;48.750;9.278;2022-11-12T04:50:13;3.73;;;3.33;;
3985;SDS011;2007;48.750;9.278;2022-11-12T04:52:41;3.80;;;3.20;;
3985;SDS011;2007;48.750;9.278;2022-11-12T04:55:09;4.13;;;3.43;;
3985;SDS011;2007;48.750;9.278;2022-11-12T04:57:38;3.63;;;3.33;;
3985;SDS011;2007;48.750;9.278;2022-11-12T05:00:06;3.30;;;3.03;;
3985;SDS011;2007;48.750;9.278;2022-11-12T05:02:35;4.00;;;3.40;;
3985;SDS011;2007;48.750;9.278;2022-11-12T05:05:03;3.80;;;3.43;;
3985;SDS011;2007;48.750;9.278;2022-11-12T05:07:33;3.73;;;3.40;;
3985;SDS011;2007;48.750;9.278;2022-11-12T05:10:00;3.53;;;3.07;;
3985;SDS011;2007;48.750;9.278;2022-11-12T05:12:28;3.77;;;3.47;;
3985;SDS011;2007;48.750;9.278;2022-11-12T05:14:56;4.70;;;3.47;;
3985;SDS011;2007;48.750;9.278;2022-11-12T05:17:24;4.13;;;3.33;;
3985;SDS011;2007;48.750;9.278;2022-11-12T05:19:52;3.80;;;3.50;;
3985;SDS011;2007;48.750;9.278;2022-11-12T05:22:20;4.17;;;3.77;;
3985;SDS011;2007;48.750;9.278;2022-11-12T05:25:09;4.63;;;3.47;;
3985;SDS011;2007;48.750;9.278;2022-11-12T05:27:37;3.83;;;3.07;;
3985;SDS011;2007;48.750;9.278;2022-11-12T05:30:05;3.40;;;3.10;;
3985;SDS011;2007;48.750;9.278;2022-11-12T05:32:34;3.63;;;3.27;;
3985;SDS011;2007;48.750;9.278;2022-11-12T05:35:02;3.50;;;3.20;;
3985;SDS011;2007;48.750;9.278;2022-11-12T05:37:31;3.70;;;3.27;;
3985;SDS011;2007;48.750;9.278;2022-11-12T05:39:58;3.47;;;3.17;;
3985;SDS011;2007;48.750;9.278;2022-11-12T05:42:28;3.07;;;2.67;;
3985;SDS011;2007;48.750;9.278;2022-11-12T05:44:55;3.13;;;2.83;;
3985;SDS011;2007;48.750;9.278;2022-11-12T05:47:23;3.60;;;3.10;;
3985;SDS011;2007;48.750;9.278;2022-11-12T05:49:51;4.00;;;3.37;;
3985;SDS011;2007;48.750;9.278;2022-11-12T05:52:19;3.50;;;3.20;;
3985;SDS011;2007;48.750;9.278;2022-11-12T05:54:47;3.40;;;3.10;;
3985;SDS011;2007;48.750;9.278;2022-11-12T05:57:15;3.30;;;3.00;;
3985;SDS011;2007;48.750;9.278;2022-11-12T05:59:44;3.13;;;2.70;;
3985;SDS011;2007;48.750;9.278;2022-11-12T06:02:12;3.17;;;2.87;;
3985;SDS011;2007;48.750;9.278;2022-11-12T06:04:40;3.70;;;3.20;;
3985;SDS011;2007;48.750;9.278;2022-11-12T06:07:07;3.63;;;3.30;;
3985;SDS011;2007;48.750;9.278;2022-11-12T06:09:35;3.07;;;2.70;;
3985;SDS011;2007;48.750;9.278;2022-11-12T06:12:03;3.40;;;3.10;;
3985;SDS011;2007;48.750;9.278;2022-11-12T06:14:33;3.10;;;2.80;;
3985;SDS011;2007;48.750;9.278;2022-11-12T06:17:02;3.70;;;3.27;;
3985;SDS011;2007;48.750;9.278;2022-11-12T06:19:30;3.57;;;3.10;;
3985;SDS011;2007;48.750;9.278;2022-11-12T06:21:58;4.10;;;2.87;;
3985;SDS011;2007;48.750;9.278;2022-11-12T06:24:26;2.93;;;2.63;;
3985;SDS011;2007;48.750;9.278;2022-11-12T06:27:00;3.27;;;2.97;;
3985;SDS011;2007;48.750;9.278;2022-11-12T06:29:28;3.70;;;3.00;;
3985;SDS011;2007;48.750;9.278;2022-11-12T06:31:56;3.20;;;2.90;;
3985;SDS011;2007;48.750;9.278;2022-11-12T06:34:25;3.33;;;3.03;;
3985;SDS011;2007;48.750;9.278;2022-11-12T06:36:53;3.13;;;2.83;;
3985;SDS011;2007;48.750;9.278;2022-11-12T06:39:21;2.90;;;2.57;;
3985;SDS011;2007;48.750;9.278;2022-11-12T06:41:49;2.90;;;2.60;;
3985;SDS011;2007;48.750;9.278;2022-11-12T06:44:16;3.10;;;2.80;;
3985;SDS011;2007;48.750;9.278;2022-11-12T06:46:47;3.00;;;2.73;;
3985;SDS011;2007;48.750;9.278;2022-11-12T06:49:15;3.43;;;3.13;;
3985;SDS011;2007;48.750;9.278;2022-11-12T06:51:44;4.70;;;3.30;;
3985;SDS011;2007;48.750;9.278;2022-11-12T06:54:12;3.70;;;3.10;;
3985;SDS011;2007;48.750;9.278;2022-11-12T06:56:40;3.07;;;2.80;;
3985;SDS011;2007;48.750;9.278;2022-11-12T06:59:08;3.00;;;2.80;;
3985;SDS011;2007;48.750;9.278;2022-11-12T07:01:36;3.30;;;3.00;;
3985;SDS011;2007;48.750;9.278;2022-11-12T07:04:04;4.00;;;3.40;;
3985;SDS011;2007;48.750;9.278;2022-11-12T07:06:32;2.93;;;2.60;;
3985;SDS011;2007;48.750;9.278;2022-11-12T07:09:01;3.70;;;3.40;;
3985;SDS011;2007;48.750;9.278;2022-11-12T07:11:29;3.50;;;3.20;;
3985;SDS011;2007;48.750;9.278;2022-11-12T07:13:57;3.13;;;2.83;;
3985;SDS011;2007;48.750;9.278;2022-11-12T07:16:25;2.60;;;2.40;;
3985;SDS011;2007;48.750;9.278;2022-11-12T07:18:53;2.90;;;2.63;;
3985;SDS011;2007;48.750;9.278;2022-11-12T07:21:21;2.93;;;2.70;;
3985;SDS011;2007;48.750;9.278;2022-11-12T07:23:49;3.33;;;3.03;;
3985;SDS011;2007;48.750;9.278;2022-11-12T07:26:18;3.63;;;3.33;;
3985;SDS011;2007;48.750;9.278;2022-11-12T07:28:48;3.17;;;2.87;;
3985;SDS011;2007;48.750;9.278;2022-11-12T07:31:17;3.30;;;2.80;;
3985;SDS011;2007;48.750;9.278;2022-11-12T07:33:46;3.40;;;2.83;;
3985;SDS011;2007;48.750;9.278;2022-11-12T07:36:15;3.07;;;2.60;;
3985;SDS011;2007;48.750;9.278;2022-11-12T07:38:45;3.37;;;2.70;;
3985;SDS011;2007;48.750;9.278;2022-11-12T07:41:14;3.10;;;2.80;;
3985;SDS011;2007;48.750;9.278;2022-11-12T07:43:45;3.00;;;2.20;;
3985;SDS011;2007;48.750;9.278;2022-11-12T07:46:15;3.00;;;2.50;;
3985;SDS011;2007;48.750;9.278;2022-11-12T07:48:44;2.77;;;2.57;;
3985;SDS011;2007;48.750;9.278;2022-11-12T07:51:13;3.50;;;3.20;;
3985;SDS011;2007;48.750;9.278;2022-11-12T07:53:42;3.53;;;3.23;;
3985;SDS011;2007;48.750;9.278;2022-11-12T07:56:12;2.73;;;2.53;;
3985;SDS011;2007;48.750;9.278;2022-11-12T07:58:41;2.87;;;2.63;;
3985;SDS011;2007;48.750;9.278;2022-11-12T08:01:14;3.17;;;2.30;;
3985;SDS011;2007;48.750;9.278;2022-11-12T08:03:49;3.97;;;2.70;;
3985;SDS011;2007;48.750;9.278;2022-11-12T08:06:17;2.83;;;2.60;;
3985;SDS011;2007;48.750;9.278;2022-11-12T08:08:46;3.90;;;2.83;;
3985;SDS011;2007;48.750;9.278;2022-11-12T08:11:14;3.27;;;2.83;;
3985;SDS011;2007;48.750;9.278;2022-11-12T08:13:41;3.43;;;2.90;;
3985;SDS011;2007;48.750;9.278;2022-11-12T08:16:11;2.70;;;2.47;;
3985;SDS011;2007;48.750;9.278;2022-11-12T08:18:39;2.60;;;2.30;;
3985;SDS011;2007;48.750;9.278;2022-11-12T08:21:08;2.67;;;2.47;;
3985;SDS011;2007;48.750;9.278;2022-11-12T08:23:38;2.43;;;2.23;;
3985;SDS011;2007;48.750;9.278;2022-11-12T08:26:07;3.73;;;2.50;;
3985;SDS011;2007;48.750;9.278;2022-11-12T08:28:37;2.57;;;2.37;;
3985;SDS011;2007;48.750;9.278;2022-11-12T08:31:06;2.53;;;2.33;;
3985;SDS011;2007;48.750;9.278;2022-11-12T08:33:36;2.53;;;2.30;;
3985;SDS011;2007;48.750;9.278;2022-11-12T08:36:05;2.93;;;2.33;;
3985;SDS011;2007;48.750;9.278;2022-11-12T08:38:34;3.00;;;2.70;;
3985;SDS011;2007;48.750;9.278;2022-11-12T08:41:03;3.00;;;2.67;;
3985;SDS011;2007;48.750;9.278;2022-11-12T08:43:33;2.97;;;2.30;;
3985;SDS011;2007;48.750;9.278;2022-11-12T08:46:01;3.10;;;2.80;;
3985;SDS011;2007;48.750;9.278;2022-11-12T08:48:30;2.57;;;2.37;;
3985;SDS011;2007;48.750;9.278;2022-11-12T08:51:01;3.50;;;3.20;;
3985;SDS011;2007;48.750;9.278;2022-11-12T08:53:29;3.20;;;2.90;;
3985;SDS011;2007;48.750;9.278;2022-11-12T08:55:57;2.67;;;2.47;;
3985;SDS011;2007;48.750;9.278;2022-11-12T08:58:26;2.57;;;2.30;;
3985;SDS011;2007;48.750;9.278;2022-11-12T09:00:54;3.13;;;2.93;;
3985;SDS011;2007;48.750;9.278;2022-11-12T09:03:23;2.37;;;2.07;;
3985;SDS011;2007;48.750;9.278;2022-11-12T09:05:52;3.37;;;2.87;;
3985;SDS011;2007;48.750;9.278;2022-11-12T09:08:22;3.03;;;2.50;;
3985;SDS011;2007;48.750;9.278;2022-11-12T09:10:51;2.37;;;2.17;;
3985;SDS011;2007;48.750;9.278;2022-11-12T09:13:19;2.53;;;2.30;;
3985;SDS011;2007;48.750;9.278;2022-11-12T09:15:47;2.80;;;2.20;;
3985;SDS011;2007;48.750;9.278;2022-11-12T09:18:16;2.27;;;2.07;;
3985;SDS011;2007;48.750;9.278;2022-11-12T09:20:44;3.10;;;2.80;;
3985;SDS011;2007;48.750;9.278;2022-11-12T09:23:13;2.77;;;2.47;;
3985;SDS011;2007;48.750;9.278;2022-11-12T09:25:44;2.40;;;2.00;;
3985;SDS011;2007;48.750;9.278;2022-11-12T09:28:12;3.00;;;2.70;;
3985;SDS011;2007;48.750;9.278;2022-11-12T09:30:42;2.40;;;2.20;;
3985;SDS011;2007;48.750;9.278;2022-11-12T09:33:13;3.53;;;2.47;;
3985;SDS011;2007;48.750;9.278;2022-11-12T09:35:41;2.90;;;2.70;;
3985;SDS011;2007;48.750;9.278;2022-11-12T09:38:09;2.80;;;2.50;;
3985;SDS011;2007;48.750;9.278;2022-11-12T09:40:46;2.40;;;1.97;;
3985;SDS011;2007;48.750;9.278;2022-11-12T09:43:25;3.40;;;2.53;;
3985;SDS011;2007;48.750;9.278;2022-11-12T09:45:56;2.93;;;2.70;;
3985;SDS011;2007;48.750;9.278;2022-11-12T09:48:51;2.83;;;2.57;;
3985;SDS011;2007;48.750;9.278;2022-11-12T09:51:25;2.67;;;2.40;;
3985;SDS011;2007;48.750;9.278;2022-11-12T09:53:55;2.87;;;2.17;;
3985;SDS011;2007;48.750;9.278;2022-11-12T09:56:26;2.80;;;2.53;;
3985;SDS011;2007;48.750;9.278;2022-11-12T09:58:54;2.40;;;2.10;;
3985;SDS011;2007;48.750;9.278;2022-11-12T10:01:23;2.90;;;2.60;;
3985;SDS011;2007;48.750;9.278;2022-11-12T10:04:13;2.43;;;2.23;;
3985;SDS011;2007;48.750;9.278;2022-11-12T10:06:56;2.83;;;2.40;;
3985;SDS011;2007;48.750;9.278;2022-11-12T10:09:31;2.93;;;2.30;;
3985;SDS011;2007;48.750;9.278;2022-11-12T10:12:07;2.50;;;2.30;;
3985;SDS011;2007;48.750;9.278;2022-11-12T10:15:19;3.30;;;3.00;;
3985;SDS011;2007;48.750;9.278;2022-11-12T10:18:24;3.10;;;2.37;;
3985;SDS011;2007;48.750;9.278;2022-11-12T10:20:58;3.37;;;2.83;;
3985;SDS011;2007;48.750;9.278;2022-11-12T10:23:33;2.80;;;2.60;;
3985;SDS011;2007;48.750;9.278;2022-11-12T10:26:09;3.00;;;2.70;;
3985;SDS011;2007;48.750;9.278;2022-11-12T10:28:41;2.83;;;2.63;;
3985;SDS011;2007;48.750;9.278;2022-11-12T10:31:13;2.70;;;2.50;;
3985;SDS011;2007;48.750;9.278;2022-11-12T10:33:42;2.90;;;2.60;;
3985;SDS011;2007;48.750;9.278;2022-11-12T10:36:14;2.30;;;2.10;;
3985;SDS011;2007;48.750;9.278;2022-11-12T10:38:48;2.60;;;2.20;;
3985;SDS011;2007;48.750;9.278;2022-11-12T10:41:20;2.50;;;2.30;;
3985;SDS011;2007;48.750;9.278;2022-11-12T10:43:54;2.77;;;2.40;;
3985;SDS011;2007;48.750;9.278;2022-11-12T10:46:24;2.83;;;2.30;;
3985;SDS011;2007;48.750;9.278;2022-11-12T10:49:00;2.10;;;1.90;;
3985;SDS011;2007;48.750;9.278;2022-11-12T10:51:31;2.47;;;2.20;;
3985;SDS011;2007;48.750;9.278;2022-11-12T10:54:17;3.17;;;2.80;;
3985;SDS011;2007;48.750;9.278;2022-11-12T10:56:47;3.13;;;2.80;;
3985;SDS011;2007;48.750;9.278;2022-11-12T10:59:22;2.73;;;2.50;;
3985;SDS011;2007;48.750;9.278;2022-11-12T11:01:54;2.23;;;2.03;;
3985;SDS011;2007;48.750;9.278;2022-11-12T11:04:27;3.70;;;2.63;;
3985;SDS011;2007;48.750;9.278;2022-11-12T11:06:58;2.20;;;1.90;;
3985;SDS011;2007;48.750;9.278;2022-11-12T11:09:31;2.00;;;1.70;;
3985;SDS011;2007;48.750;9.278;2022-11-12T11:11:59;2.90;;;2.57;;
3985;SDS011;2007;48.750;9.278;2022-11-12T11:14:32;2.60;;;2.40;;
3985;SDS011;2007;48.750;9.278;2022-11-12T11:17:04;2.37;;;2.13;;
3985;SDS011;2007;48.750;9.278;2022-11-12T11:19:35;2.50;;;2.00;;
3985;SDS011;2007;48.750;9.278;2022-11-12T11:22:20;2.27;;;2.07;;
3985;SDS011;2007;48.750;9.278;2022-11-12T11:24:59;2.73;;;2.17;;
3985;SDS011;2007;48.750;9.278;2022-11-12T11:27:37;2.63;;;2.43;;
3985;SDS011;2007;48.750;9.278;2022-11-12T11:30:12;3.07;;;2.77;;
3985;SDS011;2007;48.750;9.278;2022-11-12T11:32:49;2.83;;;2.10;;
3985;SDS011;2007;48.750;9.278;2022-11-12T11:35:47;2.10;;;1.80;;
3985;SDS011;2007;48.750;9.278;2022-11-12T11:38:28;2.43;;;2.20;;
3985;SDS011;2007;48.750;9.278;2022-11-12T11:41:04;2.90;;;2.20;;
3985;SDS011;2007;48.750;9.278;2022-11-12T11:43:50;2.90;;;2.60;;
3985;SDS011;2007;48.750;9.278;2022-11-12T11:46:39;2.93;;;2.60;;
3985;SDS011;2007;48.750;9.278;2022-11-12T11:49:17;2.50;;;2.30;;
3985;SDS011;2007;48.750;9.278;2022-11-12T11:52:07;2.63;;;2.00;;
3985;SDS011;2007;48.750;9.278;2022-11-12T11:54:51;3.07;;;2.07;;
3985;SDS011;2007;48.750;9.278;2022-11-12T11:57:31;2.30;;;2.00;;
3985;SDS011;2007;48.750;9.278;2022-11-12T12:00:10;2.63;;;1.97;;
3985;SDS011;2007;48.750;9.278;2022-11-12T12:02:51;2.30;;;2.10;;
3985;SDS011;2007;48.750;9.278;2022-11-12T12:05:38;2.50;;;2.17;;
3985;SDS011;2007;48.750;9.278;2022-11-12T12:08:10;2.87;;;2.50;;
3985;SDS011;2007;48.750;9.278;2022-11-12T12:10:48;2.93;;;2.23;;
3985;SDS011;2007;48.750;9.278;2022-11-12T12:13:43;3.70;;;2.57;;
3985;SDS011;2007;48.750;9.278;2022-11-12T12:16:22;2.50;;;2.30;;
3985;SDS011;2007;48.750;9.278;2022-11-12T12:19:00;2.53;;;2.27;;
3985;SDS011;2007;48.750;9.278;2022-11-12T12:21:35;2.57;;;2.37;;
3985;SDS011;2007;48.750;9.278;2022-11-12T12:24:08;2.53;;;2.27;;
3985;SDS011;2007;48.750;9.278;2022-11-12T12:26:42;2.10;;;1.90;;
3985;SDS011;2007;48.750;9.278;2022-11-12T12:29:15;2.40;;;2.20;;
3985;SDS011;2007;48.750;9.278;2022-11-12T12:31:46;2.30;;;2.00;;
3985;SDS011;2007;48.750;9.278;2022-11-12T12:34:20;3.33;;;2.60;;
3985;SDS011;2007;48.750;9.278;2022-11-12T12:36:53;2.60;;;2.23;;
3985;SDS011;2007;48.750;9.278;2022-11-12T12:39:30;3.03;;;2.23;;
3985;SDS011;2007;48.750;9.278;2022-11-12T12:42:13;2.40;;;2.20;;
3985;SDS011;2007;48.750;9.278;2022-11-12T12:44:46;2.43;;;1.77;;
3985;SDS011;2007;48.750;9.278;2022-11-12T12:47:33;2.10;;;1.90;;
3985;SDS011;2007;48.750;9.278;2022-11-12T12:50:06;2.57;;;2.03;;
3985;SDS011;2007;48.750;9.278;2022-11-12T12:55:39;2.30;;;2.03;;
3985;SDS011;2007;48.750;9.278;2022-11-12T12:58:14;2.47;;;2.27;;
3985;SDS011;2007;48.750;9.278;2022-11-12T13:00:45;2.87;;;2.57;;
3985;SDS011;2007;48.750;9.278;2022-11-12T13:06:20;2.13;;;1.77;;
3985;SDS011;2007;48.750;9.278;2022-11-12T13:08:50;2.67;;;1.90;;
3985;SDS011;2007;48.750;9.278;2022-11-12T13:14:43;2.30;;;2.00;;
3985;SDS011;2007;48.750;9.278;2022-11-12T13:23:11;2.40;;;1.90;;
3985;SDS011;2007;48.750;9.278;2022-11-12T13:26:42;2.90;;;2.20;;
3985;SDS011;2007;48.750;9.278;2022-11-12T13:29:16;2.67;;;2.20;;
3985;SDS011;2007;48.750;9.278;2022-11-12T13:37:52;2.30;;;2.10;;
3985;SDS011;2007;48.750;9.278;2022-11-12T13:40:39;2.63;;;2.43;;
3985;SDS011;2007;48.750;9.278;2022-11-12T13:43:12;2.47;;;1.83;;
3985;SDS011;2007;48.750;9.278;2022-11-12T13:45:45;2.40;;;1.93;;
3985;SDS011;2007;48.750;9.278;2022-11-12T13:48:17;2.40;;;2.10;;
3985;SDS011;2007;48.750;9.278;2022-11-12T13:50:52;2.17;;;1.97;;
3985;SDS011;2007;48.750;9.278;2022-11-12T13:53:22;2.40;;;2.20;;
3985;SDS011;2007;48.750;9.278;2022-11-12T13:55:53;2.10;;;1.63;;
3985;SDS011;2007;48.750;9.278;2022-11-12T13:58:25;2.37;;;2.10;;
3985;SDS011;2007;48.750;9.278;2022-11-12T14:00:55;3.07;;;2.40;;
3985;SDS011;2007;48.750;9.278;2022-11-12T14:03:26;2.17;;;1.60;;
3985;SDS011;2007;48.750;9.278;2022-11-12T14:06:01;2.27;;;2.07;;
3985;SDS011;2007;48.750;9.278;2022-11-12T14:08:35;3.10;;;2.10;;
3985;SDS011;2007;48.750;9.278;2022-11-12T14:11:20;2.60;;;2.00;;
3985;SDS011;2007;48.750;9.278;2022-11-12T14:14:04;2.40;;;2.20;;
3985;SDS011;2007;48.750;9.278;2022-11-12T14:16:43;2.20;;;2.00;;
3985;SDS011;2007;48.750;9.278;2022-11-12T14:22:35;2.43;;;2.20;;
3985;SDS011;2007;48.750;9.278;2022-11-12T14:25:10;2.73;;;2.53;;
3985;SDS011;2007;48.750;9.278;2022-11-12T14:27:44;2.40;;;2.20;;
3985;SDS011;2007;48.750;9.278;2022-11-12T14:30:13;3.00;;;2.20;;
3985;SDS011;2007;48.750;9.278;2022-11-12T14:32:44;2.73;;;1.80;;
3985;SDS011;2007;48.750;9.278;2022-11-12T14:38:10;2.30;;;2.07;;
3985;SDS011;2007;48.750;9.278;2022-11-12T14:40:44;2.23;;;1.80;;
3985;SDS011;2007;48.750;9.278;2022-11-12T14:43:20;2.37;;;2.03;;
3985;SDS011;2007;48.750;9.278;2022-11-12T14:45:55;2.40;;;2.00;;
3985;SDS011;2007;48.750;9.278;2022-11-12T14:48:25;2.00;;;1.70;;
3985;SDS011;2007;48.750;9.278;2022-11-12T14:50:55;2.10;;;1.70;;
3985;SDS011;2007;48.750;9.278;2022-11-12T14:53:28;2.50;;;2.30;;
3985;SDS011;2007;48.750;9.278;2022-11-12T14:55:58;2.27;;;1.93;;
3985;SDS011;2007;48.750;9.278;2022-11-12T14:58:30;2.53;;;1.90;;
3985;SDS011;2007;48.750;9.278;2022-11-12T15:04:16;2.93;;;2.03;;
3985;SDS011;2007;48.750;9.278;2022-11-12T15:06:50;3.40;;;2.33;;
3985;SDS011;2007;48.750;9.278;2022-11-12T15:09:30;2.70;;;2.20;;
3985;SDS011;2007;48.750;9.278;2022-11-12T15:12:00;2.43;;;2.20;;
3985;SDS011;2007;48.750;9.278;2022-11-12T15:14:31;2.97;;;2.60;;
3985;SDS011;2007;48.750;9.278;2022-11-12T15:17:00;3.23;;;2.40;;
3985;SDS011;2007;48.750;9.278;2022-11-12T15:19:30;2.30;;;1.83;;
3985;SDS011;2007;48.750;9.278;2022-11-12T15:21:59;2.87;;;2.37;;
3985;SDS011;2007;48.750;9.278;2022-11-12T15:24:29;2.00;;;1.70;;
3985;SDS011;2007;48.750;9.278;2022-11-12T15:26:59;1.97;;;1.77;;
3985;SDS011;2007;48.750;9.278;2022-11-12T15:29:30;3.40;;;2.20;;
3985;SDS011;2007;48.750;9.278;2022-11-12T15:32:01;2.37;;;2.17;;
3985;SDS011;2007;48.750;9.278;2022-11-12T15:34:49;2.70;;;2.20;;
3985;SDS011;2007;48.750;9.278;2022-11-12T15:37:19;2.03;;;1.80;;
3985;SDS011;2007;48.750;9.278;2022-11-12T15:39:51;2.83;;;2.63;;
3985;SDS011;2007;48.750;9.278;2022-11-12T15:42:23;2.13;;;1.93;;
3985;SDS011;2007;48.750;9.278;2022-11-12T15:44:57;2.90;;;2.30;;
3985;SDS011;2007;48.750;9.278;2022-11-12T15:47:27;3.27;;;2.37;;
3985;SDS011;2007;48.750;9.278;2022-11-12T15:49:56;2.33;;;1.90;;
3985;SDS011;2007;48.750;9.278;2022-11-12T15:52:25;3.00;;;2.27;;
3985;SDS011;2007;48.750;9.278;2022-11-12T15:54:53;2.30;;;1.87;;
3985;SDS011;2007;48.750;9.278;2022-11-12T15:57:21;2.40;;;2.03;;
3985;SDS011;2007;48.750;9.278;2022-11-12T15:59:52;2.30;;;2.10;;
3985;SDS011;2007;48.750;9.278;2022-11-12T16:02:34;2.63;;;1.80;;
3985;SDS011;2007;48.750;9.278;2022-11-12T16:05:02;2.33;;;2.10;;
3985;SDS011;2007;48.750;9.278;2022-11-12T16:07:30;2.87;;;2.20;;
3985;SDS011;2007;48.750;9.278;2022-11-12T16:09:57;2.30;;;2.10;;
3985;SDS011;2007;48.750;9.278;2022-11-12T16:12:25;2.40;;;1.90;;
3985;SDS011;2007;48.750;9.278;2022-11-12T16:14:54;2.70;;;2.07;;